createdAt,value
2023-01-12T00:02:16.661Z,40.70
2023-01-12T00:04:45.509Z,41.40
2023-01-12T00:07:16.168Z,44.73
2023-01-12T00:09:44.419Z,44.63
2023-01-12T00:12:13.613Z,45.50
2023-01-12T00:14:41.854Z,45.27
2023-01-12T00:17:12.173Z,46.27
2023-01-12T00:19:40.444Z,45.67
2023-01-12T00:22:12.192Z,47.73
2023-01-12T00:24:41.832Z,48.37
2023-01-12T00:27:12.667Z,47.27
2023-01-12T00:29:40.909Z,46.97
2023-01-12T00:32:15.105Z,50.23
2023-01-12T00:34:43.279Z,48.70
2023-01-12T00:37:11.657Z,47.33
2023-01-12T00:39:42.958Z,46.83
2023-01-12T00:42:31.786Z,46.93
2023-01-12T00:45:17.560Z,47.37
2023-01-12T00:47:47.050Z,46.50
2023-01-12T00:50:17.871Z,46.80
2023-01-12T00:52:47.326Z,44.50
2023-01-12T00:55:15.443Z,45.37
2023-01-12T00:57:43.808Z,44.13
2023-01-12T01:00:13.151Z,46.17
2023-01-12T01:02:41.320Z,45.63
2023-01-12T01:05:11.241Z,45.40
2023-01-12T01:07:39.382Z,45.73
2023-01-12T01:10:08.298Z,48.00
2023-01-12T01:12:36.390Z,47.47
2023-01-12T01:15:05.099Z,47.77
2023-01-12T01:17:33.376Z,48.43
2023-01-12T01:20:01.670Z,46.03
2023-01-12T01:22:31.194Z,45.83
2023-01-12T01:24:59.291Z,44.47
2023-01-12T01:27:27.321Z,43.67
2023-01-12T01:29:55.598Z,44.63
2023-01-12T01:32:23.715Z,45.80
2023-01-12T01:34:51.754Z,44.17
2023-01-12T01:37:21.899Z,44.23
2023-01-12T01:39:51.464Z,42.10
2023-01-12T01:42:28.899Z,44.00
2023-01-12T01:44:59.426Z,43.93
2023-01-12T01:47:37.544Z,44.43
2023-01-12T01:50:15.945Z,44.87
2023-01-12T01:52:48.071Z,45.30
2023-01-12T01:55:23.604Z,44.87
2023-01-12T01:57:55.860Z,46.00
2023-01-12T02:00:25.817Z,46.47
2023-01-12T02:02:55.874Z,47.13
2023-01-12T02:05:27.661Z,47.33
2023-01-12T02:08:00.999Z,48.60
2023-01-12T02:10:30.529Z,47.47
2023-01-12T02:13:15.860Z,50.43
2023-01-12T02:16:20.024Z,50.27
2023-01-12T02:18:58.995Z,50.93
2023-01-12T02:21:54.289Z,49.23
2023-01-12T02:24:59.867Z,50.47
2023-01-12T02:28:07.011Z,50.70
2023-01-12T02:31:16.729Z,50.83
2023-01-12T02:33:59.255Z,51.50
2023-01-12T02:36:35.579Z,52.20
2023-01-12T02:39:12.941Z,52.03
2023-01-12T02:42:07.128Z,53.67
2023-01-12T02:44:40.857Z,53.80
2023-01-12T02:47:17.254Z,52.10
2023-01-12T02:49:52.530Z,51.67
2023-01-12T02:52:25.443Z,49.47
2023-01-12T02:54:55.315Z,52.67
2023-01-12T02:57:26.617Z,47.50
2023-01-12T02:59:56.576Z,49.50
2023-01-12T03:02:27.742Z,51.40
2023-01-12T03:04:57.335Z,52.13
2023-01-12T03:07:42.101Z,52.40
2023-01-12T03:10:20.037Z,51.57
2023-01-12T03:12:52.293Z,53.03
2023-01-12T03:15:21.033Z,50.57
2023-01-12T03:17:57.134Z,50.37
2023-01-12T03:20:29.736Z,54.03
2023-01-12T03:23:03.538Z,52.27
2023-01-12T03:25:34.975Z,54.73
2023-01-12T03:28:07.612Z,55.47
2023-01-12T03:30:39.863Z,53.20
2023-01-12T03:33:08.782Z,53.73
2023-01-12T03:35:44.876Z,53.00
2023-01-12T03:38:20.469Z,53.57
2023-01-12T03:40:57.894Z,58.07
2023-01-12T03:43:32.030Z,55.53
2023-01-12T03:46:05.920Z,54.93
2023-01-12T03:48:41.433Z,55.33
2023-01-12T03:51:16.309Z,54.53
2023-01-12T03:53:47.070Z,50.43
2023-01-12T03:56:17.381Z,49.10
2023-01-12T03:58:46.447Z,50.37
2023-01-12T04:01:15.076Z,44.07
2023-01-12T04:03:43.190Z,48.90
2023-01-12T04:06:12.797Z,45.03
2023-01-12T04:08:40.994Z,45.03
2023-01-12T04:11:23.614Z,44.73
2023-01-12T04:13:51.873Z,46.43
2023-01-12T04:16:20.137Z,45.73
2023-01-12T04:18:48.299Z,42.10
2023-01-12T04:21:35.135Z,44.33
2023-01-12T04:24:03.304Z,43.73
2023-01-12T04:26:31.479Z,40.57
2023-01-12T04:28:59.549Z,40.17
2023-01-12T04:31:27.616Z,41.63
2023-01-12T04:33:55.684Z,40.10
2023-01-12T04:36:25.240Z,41.23
2023-01-12T04:38:53.273Z,41.97
2023-01-12T04:41:21.368Z,39.57
2023-01-12T04:43:49.395Z,39.97
2023-01-12T04:46:17.594Z,37.43
2023-01-12T04:48:45.743Z,38.47
2023-01-12T04:51:14.335Z,36.87
2023-01-12T04:53:43.851Z,36.47
2023-01-12T04:56:11.969Z,35.17
2023-01-12T04:58:40.017Z,36.87
2023-01-12T05:01:12.043Z,36.17
2023-01-12T05:03:40.280Z,37.00
2023-01-12T05:06:09.087Z,36.60
2023-01-12T05:08:55.062Z,36.17
2023-01-12T05:11:28.552Z,38.17
2023-01-12T05:13:57.622Z,39.30
2023-01-12T05:16:26.455Z,39.67
2023-01-12T05:18:54.820Z,39.53
2023-01-12T05:21:23.994Z,41.10
2023-01-12T05:23:53.981Z,42.13
2023-01-12T05:26:22.582Z,43.67
2023-01-12T05:28:52.340Z,44.63
2023-01-12T05:31:21.027Z,45.37
2023-01-12T05:33:49.491Z,45.07
2023-01-12T05:36:18.458Z,47.50
2023-01-12T05:38:46.633Z,45.90
2023-01-12T05:41:14.951Z,46.47
2023-01-12T05:43:52.227Z,44.97
2023-01-12T05:46:23.796Z,46.13
2023-01-12T05:48:52.866Z,48.00
2023-01-12T05:51:21.471Z,48.43
2023-01-12T05:53:50.014Z,48.80
2023-01-12T05:56:20.516Z,49.60
2023-01-12T05:58:52.805Z,49.77
2023-01-12T06:01:22.964Z,49.50
2023-01-12T06:03:52.170Z,49.77
2023-01-12T06:06:22.070Z,50.20
2023-01-12T06:08:52.679Z,47.90
2023-01-12T06:11:39.123Z,49.57
2023-01-12T06:14:07.663Z,48.80
2023-01-12T06:16:38.889Z,47.17
2023-01-12T06:19:07.811Z,46.20
2023-01-12T06:21:36.084Z,46.37
2023-01-12T06:24:04.289Z,47.20
2023-01-12T06:26:32.369Z,46.63
2023-01-12T06:29:01.286Z,47.43
2023-01-12T06:31:29.451Z,46.83
2023-01-12T06:33:59.060Z,45.97
2023-01-12T06:36:27.206Z,45.80
2023-01-12T06:38:55.387Z,47.80
2023-01-12T06:41:41.186Z,48.30
2023-01-12T06:44:09.260Z,47.80
2023-01-12T06:46:37.410Z,47.63
2023-01-12T06:49:07.124Z,48.73
2023-01-12T06:51:35.207Z,49.67
2023-01-12T06:54:03.380Z,48.73
2023-01-12T06:56:31.705Z,48.73
2023-01-12T06:58:59.841Z,51.20
2023-01-12T07:01:27.968Z,50.73
2023-01-12T07:03:56.141Z,50.73
2023-01-12T07:06:25.730Z,50.13
2023-01-12T07:08:53.912Z,47.40
2023-01-12T07:11:22.048Z,46.80
2023-01-12T07:13:50.140Z,45.47
2023-01-12T07:16:18.428Z,43.10
2023-01-12T07:18:48.252Z,41.77
2023-01-12T07:21:16.976Z,40.93
2023-01-12T07:23:46.499Z,40.37
2023-01-12T07:26:15.018Z,40.80
2023-01-12T07:28:43.143Z,39.03
2023-01-12T07:31:11.389Z,39.87
2023-01-12T07:33:40.157Z,40.33
2023-01-12T07:36:12.709Z,38.33
2023-01-12T07:38:42.638Z,38.77
2023-01-12T07:41:32.265Z,39.40
2023-01-12T07:44:09.796Z,40.13
2023-01-12T07:46:38.306Z,39.13
2023-01-12T07:49:06.489Z,38.70
2023-01-12T07:51:35.042Z,36.73
2023-01-12T07:54:07.477Z,34.63
2023-01-12T07:56:36.952Z,33.77
2023-01-12T07:59:05.055Z,35.07
2023-01-12T08:01:36.050Z,33.60
2023-01-12T08:04:04.352Z,32.40
2023-01-12T08:06:32.623Z,32.00
2023-01-12T08:09:00.879Z,33.13
2023-01-12T08:11:29.055Z,31.17
2023-01-12T08:13:59.661Z,29.87
2023-01-12T08:16:33.650Z,31.27
2023-01-12T08:19:04.341Z,30.53
2023-01-12T08:21:39.769Z,29.60
2023-01-12T08:24:09.667Z,30.60
2023-01-12T08:26:42.204Z,29.50
2023-01-12T08:29:15.031Z,30.73
2023-01-12T08:31:43.866Z,29.90
2023-01-12T08:34:12.435Z,30.03
2023-01-12T08:36:44.202Z,29.57
2023-01-12T08:39:12.993Z,30.93
2023-01-12T08:41:42.445Z,29.03
2023-01-12T08:44:12.277Z,29.80
2023-01-12T08:46:48.123Z,28.97
2023-01-12T08:49:18.256Z,29.33
2023-01-12T08:51:46.882Z,28.97
2023-01-12T08:54:17.057Z,29.33
2023-01-12T08:56:45.435Z,29.50
2023-01-12T08:59:14.941Z,29.93
2023-01-12T09:01:43.462Z,28.63
2023-01-12T09:04:12.208Z,30.27
2023-01-12T09:06:42.689Z,27.60
2023-01-12T09:09:13.230Z,27.87
2023-01-12T09:11:43.072Z,28.33
2023-01-12T09:14:12.727Z,25.77
2023-01-12T09:16:42.745Z,26.37
2023-01-12T09:19:11.292Z,25.77
2023-01-12T09:21:41.556Z,23.80
2023-01-12T09:24:10.875Z,24.73
2023-01-12T09:26:40.639Z,24.07
2023-01-12T09:29:09.743Z,23.53
2023-01-12T09:31:39.145Z,24.80
2023-01-12T09:34:08.879Z,24.73
2023-01-12T09:36:38.565Z,23.90
2023-01-12T09:39:10.169Z,23.40
2023-01-12T09:42:02.522Z,23.90
2023-01-12T09:44:52.095Z,22.93
2023-01-12T09:47:27.221Z,24.20
2023-01-12T09:50:10.658Z,24.73
2023-01-12T09:52:42.713Z,25.53
2023-01-12T09:55:16.511Z,25.33
2023-01-12T09:58:16.518Z,25.73
2023-01-12T10:00:44.671Z,25.60
2023-01-12T10:03:17.482Z,24.47
2023-01-12T10:05:50.398Z,23.90
2023-01-12T10:08:24.143Z,22.37
2023-01-12T10:11:03.199Z,20.90
2023-01-12T10:13:48.885Z,20.70
2023-01-12T10:16:22.525Z,20.50
2023-01-12T10:18:55.735Z,20.73
2023-01-12T10:21:27.405Z,20.17
2023-01-12T10:23:56.220Z,20.20
2023-01-12T10:26:26.676Z,18.43
2023-01-12T10:28:56.369Z,18.17
2023-01-12T10:31:27.238Z,17.20
2023-01-12T10:34:13.478Z,17.47
2023-01-12T10:36:47.110Z,16.20
2023-01-12T10:39:38.719Z,14.67
2023-01-12T10:42:32.099Z,13.77
2023-01-12T10:45:13.952Z,14.50
2023-01-12T10:47:42.561Z,12.57
2023-01-12T10:50:29.432Z,12.30
2023-01-12T10:53:03.447Z,11.63
2023-01-12T10:55:34.505Z,9.57
2023-01-12T10:58:03.061Z,8.07
2023-01-12T11:00:31.774Z,7.40
2023-01-12T11:03:00.115Z,6.70
2023-01-12T11:05:37.538Z,7.57
2023-01-12T11:08:23.707Z,6.23
2023-01-12T11:10:51.901Z,6.00
2023-01-12T11:13:28.859Z,5.37
2023-01-12T11:16:12.029Z,5.60
2023-01-12T11:18:44.387Z,5.33
2023-01-12T11:21:19.854Z,4.93
2023-01-12T11:23:58.038Z,5.40
2023-01-12T11:26:32.076Z,4.30
2023-01-12T11:29:05.323Z,4.80
2023-01-12T11:31:39.649Z,4.33
2023-01-12T11:34:16.937Z,4.37
2023-01-12T11:36:49.002Z,4.50
2023-01-12T11:39:21.978Z,4.20
2023-01-12T11:42:06.655Z,4.13
2023-01-12T11:44:40.969Z,3.97
2023-01-12T11:47:14.276Z,3.70
2023-01-12T11:49:49.520Z,3.50
2023-01-12T11:52:18.079Z,3.10
2023-01-12T11:54:47.508Z,3.10
2023-01-12T11:57:42.351Z,3.17
2023-01-12T12:00:25.152Z,3.10
2023-01-12T12:03:06.355Z,3.30
2023-01-12T12:05:45.212Z,3.10
2023-01-12T12:08:26.376Z,2.90
2023-01-12T12:11:03.685Z,3.20
2023-01-12T12:13:36.824Z,2.97
2023-01-12T12:16:31.229Z,3.20
2023-01-12T12:19:26.989Z,3.50
2023-01-12T12:22:02.735Z,3.47
2023-01-12T12:24:56.236Z,3.10
2023-01-12T12:27:36.823Z,3.10
2023-01-12T12:30:23.092Z,3.97
2023-01-12T12:32:56.783Z,3.40
2023-01-12T12:35:42.673Z,3.30
2023-01-12T12:38:25.869Z,3.43
2023-01-12T12:41:30.986Z,3.33
2023-01-12T12:44:31.346Z,3.33
2023-01-12T12:47:07.969Z,3.33
2023-01-12T12:49:39.551Z,3.00
2023-01-12T12:52:11.908Z,3.63
2023-01-12T12:54:41.622Z,3.37
2023-01-12T12:57:09.964Z,3.27
2023-01-12T12:59:59.627Z,3.60
2023-01-12T13:02:55.599Z,3.47
2023-01-12T13:05:43.010Z,3.27
2023-01-12T13:08:23.864Z,3.27
2023-01-12T13:10:54.782Z,3.73
2023-01-12T13:13:32.151Z,3.17
2023-01-12T13:16:39.805Z,3.17
2023-01-12T13:19:15.803Z,3.37
2023-01-12T13:22:18.530Z,3.83
2023-01-12T13:24:47.140Z,3.63
2023-01-12T13:27:50.651Z,3.50
2023-01-12T13:30:24.277Z,3.23
2023-01-12T13:33:00.102Z,3.90
2023-01-12T13:35:57.985Z,3.60
2023-01-12T13:38:58.565Z,3.40
2023-01-12T13:41:48.835Z,3.47
2023-01-12T13:44:24.501Z,3.43
2023-01-12T13:46:58.037Z,4.27
2023-01-12T13:49:32.604Z,3.83
2023-01-12T13:52:03.531Z,3.93
2023-01-12T13:54:34.650Z,3.97
2023-01-12T13:57:05.502Z,3.97
2023-01-12T13:59:35.021Z,3.80
2023-01-12T14:02:03.988Z,4.00
2023-01-12T14:05:10.664Z,3.50
2023-01-12T14:07:57.073Z,4.00
2023-01-12T14:10:37.211Z,3.53
2023-01-12T14:13:26.501Z,3.90
2023-01-12T14:16:19.280Z,3.97
2023-01-12T14:18:49.536Z,3.63
2023-01-12T14:21:24.179Z,4.13
2023-01-12T14:23:52.340Z,3.40
2023-01-12T14:26:27.144Z,3.77
2023-01-12T14:28:55.438Z,3.80
2023-01-12T14:31:27.985Z,3.90
2023-01-12T14:33:57.765Z,3.43
2023-01-12T14:36:30.002Z,3.43
2023-01-12T14:39:00.313Z,4.40
2023-01-12T14:41:48.786Z,4.00
2023-01-12T14:44:40.683Z,3.67
2023-01-12T14:47:10.238Z,3.80
2023-01-12T14:49:39.547Z,3.60
2023-01-12T14:52:26.175Z,4.10
2023-01-12T14:54:54.265Z,4.07
2023-01-12T14:57:31.448Z,3.07
2023-01-12T14:59:59.865Z,3.13
2023-01-12T15:02:34.112Z,3.50
2023-01-12T15:05:05.989Z,3.63
2023-01-12T15:07:37.005Z,3.20
2023-01-12T15:10:32.847Z,3.40
2023-01-12T15:13:23.138Z,3.23
2023-01-12T15:16:10.573Z,3.20
2023-01-12T15:18:56.600Z,3.87
2023-01-12T15:21:42.938Z,3.73
2023-01-12T15:24:41.043Z,3.50
2023-01-12T15:27:10.527Z,3.10
2023-01-12T15:29:40.045Z,4.13
2023-01-12T15:32:16.603Z,4.00
2023-01-12T15:34:44.820Z,3.70
2023-01-12T15:37:16.863Z,3.77
2023-01-12T15:39:45.201Z,3.50
2023-01-12T15:42:21.979Z,4.30
2023-01-12T15:44:54.688Z,4.23
2023-01-12T15:47:23.283Z,4.50
2023-01-12T15:49:53.409Z,4.83
2023-01-12T15:52:23.631Z,5.20
2023-01-12T15:54:52.323Z,5.03
2023-01-12T15:57:20.657Z,5.00
2023-01-12T15:59:48.808Z,5.37
2023-01-12T16:02:27.597Z,5.33
2023-01-12T16:04:55.683Z,5.70
2023-01-12T16:07:23.928Z,6.10
2023-01-12T16:09:52.013Z,5.53
2023-01-12T16:12:20.109Z,6.47
2023-01-12T16:14:50.352Z,6.07
2023-01-12T16:17:18.970Z,5.83
2023-01-12T16:19:48.382Z,6.50
2023-01-12T16:22:21.307Z,5.87
2023-01-12T16:24:49.887Z,5.97
2023-01-12T16:27:19.468Z,6.27
2023-01-12T16:29:48.012Z,7.07
2023-01-12T16:32:16.384Z,6.20
2023-01-12T16:34:45.842Z,6.60
2023-01-12T16:37:16.619Z,7.17
2023-01-12T16:39:45.776Z,6.83
2023-01-12T16:42:13.843Z,7.13
2023-01-12T16:44:42.173Z,7.10
2023-01-12T16:47:14.625Z,7.47
2023-01-12T16:49:43.240Z,7.10
2023-01-12T16:52:16.738Z,7.53
2023-01-12T16:54:44.884Z,7.80
2023-01-12T16:57:14.469Z,7.90
2023-01-12T16:59:43.101Z,8.07
2023-01-12T17:02:14.025Z,8.27
2023-01-12T17:04:43.880Z,7.73
2023-01-12T17:07:12.727Z,8.67
2023-01-12T17:09:42.487Z,7.87
2023-01-12T17:12:11.460Z,8.27
2023-01-12T17:14:39.825Z,8.63
2023-01-12T17:17:10.822Z,8.30
2023-01-12T17:19:42.765Z,8.97
2023-01-12T17:22:11.852Z,9.07
2023-01-12T17:24:42.364Z,8.57
2023-01-12T17:27:11.747Z,8.73
2023-01-12T17:29:40.217Z,9.40
2023-01-12T17:32:08.425Z,9.63
2023-01-12T17:34:39.523Z,9.77
2023-01-12T17:37:08.946Z,10.13
2023-01-12T17:39:39.821Z,10.23
2023-01-12T17:42:28.331Z,11.07
2023-01-12T17:44:56.391Z,10.20
2023-01-12T17:47:25.335Z,11.70
2023-01-12T17:49:55.174Z,10.97
2023-01-12T17:52:23.552Z,10.40
2023-01-12T17:54:51.699Z,10.70
2023-01-12T17:57:21.180Z,11.87
2023-01-12T17:59:50.299Z,10.90
2023-01-12T18:02:19.190Z,11.87
2023-01-12T18:04:47.590Z,11.30
2023-01-12T18:07:15.721Z,11.10
2023-01-12T18:09:43.772Z,11.47
2023-01-12T18:12:12.468Z,11.10
2023-01-12T18:14:41.976Z,11.87
2023-01-12T18:17:11.243Z,11.10
2023-01-12T18:19:41.510Z,11.03
2023-01-12T18:22:10.973Z,11.00
2023-01-12T18:24:39.238Z,11.07
2023-01-12T18:27:07.376Z,10.73
2023-01-12T18:29:35.628Z,10.93
2023-01-12T18:32:05.617Z,10.50
2023-01-12T18:34:33.722Z,10.47
2023-01-12T18:37:02.008Z,10.60
2023-01-12T18:39:30.249Z,9.87
2023-01-12T18:42:15.971Z,10.70
2023-01-12T18:44:44.226Z,10.37
2023-01-12T18:47:33.888Z,10.47
2023-01-12T18:50:22.860Z,10.00
2023-01-12T18:53:08.402Z,10.07
2023-01-12T18:55:38.199Z,9.60
2023-01-12T18:58:06.430Z,9.90
2023-01-12T19:00:34.737Z,10.40
2023-01-12T19:03:05.537Z,10.07
2023-01-12T19:05:42.663Z,10.17
2023-01-12T19:08:28.453Z,10.20
2023-01-12T19:10:57.036Z,10.60
2023-01-12T19:13:42.286Z,9.93
2023-01-12T19:16:32.379Z,10.30
2023-01-12T19:19:01.920Z,11.40
2023-01-12T19:21:47.320Z,11.20
2023-01-12T19:24:47.740Z,11.27
2023-01-12T19:27:33.045Z,10.70
2023-01-12T19:30:01.609Z,10.83
2023-01-12T19:32:29.859Z,11.33
2023-01-12T19:35:10.302Z,10.87
2023-01-12T19:37:39.086Z,10.73
2023-01-12T19:40:14.674Z,10.87
2023-01-12T19:43:00.414Z,10.60
2023-01-12T19:45:28.509Z,10.30
2023-01-12T19:47:56.621Z,11.00
2023-01-12T19:50:26.129Z,10.57
2023-01-12T19:52:54.357Z,11.03
2023-01-12T19:55:22.664Z,10.93
2023-01-12T19:57:51.561Z,11.37
2023-01-12T20:00:20.360Z,11.07
2023-01-12T20:02:48.535Z,11.00
2023-01-12T20:05:22.719Z,10.73
2023-01-12T20:07:53.679Z,11.40
2023-01-12T20:10:22.927Z,11.37
2023-01-12T20:12:52.529Z,11.00
2023-01-12T20:15:21.771Z,10.83
2023-01-12T20:17:50.641Z,11.70
2023-01-12T20:20:19.566Z,12.00
2023-01-12T20:22:50.483Z,12.53
2023-01-12T20:25:20.661Z,11.90
2023-01-12T20:27:49.431Z,11.77
2023-01-12T20:30:31.927Z,11.80
2023-01-12T20:33:04.866Z,11.80
2023-01-12T20:35:33.316Z,11.87
2023-01-12T20:38:04.076Z,11.83
2023-01-12T20:40:33.720Z,11.70
2023-01-12T20:43:01.881Z,11.37
2023-01-12T20:45:30.044Z,12.03
2023-01-12T20:47:58.194Z,12.33
2023-01-12T20:50:26.264Z,11.97
2023-01-12T20:52:54.738Z,12.00
2023-01-12T20:55:22.873Z,11.70
2023-01-12T20:57:52.388Z,11.90
2023-01-12T21:00:20.957Z,12.27
2023-01-12T21:02:49.064Z,12.30
2023-01-12T21:05:17.286Z,11.57
2023-01-12T21:07:45.406Z,11.10
2023-01-12T21:10:13.509Z,11.73
2023-01-12T21:12:41.789Z,11.57
2023-01-12T21:15:13.538Z,11.40
2023-01-12T21:17:42.835Z,11.33
2023-01-12T21:20:12.312Z,10.97
2023-01-12T21:22:40.425Z,11.37
2023-01-12T21:25:09.546Z,11.53
2023-01-12T21:27:37.760Z,11.67
2023-01-12T21:30:06.890Z,11.20
2023-01-12T21:32:36.376Z,11.50
2023-01-12T21:35:04.513Z,11.50
2023-01-12T21:37:33.262Z,11.03
2023-01-12T21:40:01.416Z,11.40
2023-01-12T21:42:47.212Z,10.73
2023-01-12T21:45:15.550Z,10.40
2023-01-12T21:47:46.414Z,10.60
2023-01-12T21:50:14.820Z,10.93
2023-01-12T21:52:43.519Z,11.03
2023-01-12T21:55:13.585Z,10.23
2023-01-12T21:57:41.928Z,10.70
2023-01-12T22:00:11.585Z,10.27
2023-01-12T22:02:44.555Z,10.73
2023-01-12T22:05:13.747Z,9.77
2023-01-12T22:07:42.101Z,10.27
2023-01-12T22:10:20.851Z,10.37
2023-01-12T22:12:50.440Z,10.23
2023-01-12T22:15:19.234Z,11.27
2023-01-12T22:17:48.919Z,10.87
2023-01-12T22:20:17.655Z,10.50
2023-01-12T22:22:46.039Z,12.10
2023-01-12T22:25:15.391Z,11.03
2023-01-12T22:27:43.626Z,12.23
2023-01-12T22:30:13.989Z,12.80
2023-01-12T22:32:42.673Z,12.47
2023-01-12T22:35:13.370Z,13.47
2023-01-12T22:37:42.048Z,13.77
2023-01-12T22:40:12.492Z,12.30
2023-01-12T22:42:58.159Z,11.97
2023-01-12T22:45:26.275Z,13.40
2023-01-12T22:47:55.167Z,13.60
2023-01-12T22:50:25.588Z,12.57
2023-01-12T22:52:54.879Z,12.40
2023-01-12T22:55:24.494Z,11.90
2023-01-12T22:57:53.156Z,13.03
2023-01-12T23:00:22.328Z,12.73
2023-01-12T23:03:02.776Z,12.90
2023-01-12T23:05:36.193Z,12.23
2023-01-12T23:08:05.738Z,13.63
2023-01-12T23:10:34.649Z,13.77
2023-01-12T23:13:14.052Z,14.23
2023-01-12T23:15:43.951Z,13.37
2023-01-12T23:18:12.985Z,15.53
2023-01-12T23:20:42.849Z,14.30
2023-01-12T23:23:11.932Z,14.20
2023-01-12T23:25:40.502Z,13.23
2023-01-12T23:28:09.179Z,13.50
2023-01-12T23:30:37.467Z,13.23
2023-01-12T23:33:06.136Z,12.87
2023-01-12T23:35:37.186Z,13.73
2023-01-12T23:38:07.185Z,14.33
2023-01-12T23:40:35.461Z,13.83
2023-01-12T23:43:03.555Z,13.53
2023-01-12T23:45:31.906Z,13.67
2023-01-12T23:48:00.097Z,12.87
2023-01-12T23:50:28.269Z,12.63
2023-01-12T23:52:56.428Z,12.80
2023-01-12T23:55:27.110Z,13.50
2023-01-12T23:57:55.231Z,12.03
